sensor_id;sensor_type;location;lat;lon;timestamp;P1;durP1;ratioP1;P2;durP2;ratioP2
37895;SDS011;23733;53.254;10.430;2023-02-11T00:00:32;56.00;;;28.37;;
37895;SDS011;23733;53.254;10.430;2023-02-11T00:02:58;51.53;;;26.73;;
37895;SDS011;23733;53.254;10.430;2023-02-11T00:05:25;53.03;;;27.40;;
37895;SDS011;23733;53.254;10.430;2023-02-11T00:07:51;50.67;;;26.70;;
37895;SDS011;23733;53.254;10.430;2023-02-11T00:10:17;62.60;;;30.47;;
37895;SDS011;23733;53.254;10.430;2023-02-11T00:12:43;61.60;;;29.30;;
37895;SDS011;23733;53.254;10.430;2023-02-11T00:15:10;56.87;;;29.30;;
37895;SDS011;23733;53.254;10.430;2023-02-11T00:17:36;58.10;;;28.50;;
37895;SDS011;23733;53.254;10.430;2023-02-11T00:20:02;51.90;;;27.17;;
37895;SDS011;23733;53.254;10.430;2023-02-11T00:22:29;55.20;;;30.33;;
37895;SDS011;23733;53.254;10.430;2023-02-11T00:24:55;59.80;;;29.73;;
37895;SDS011;23733;53.254;10.430;2023-02-11T00:27:22;62.90;;;30.60;;
37895;SDS011;23733;53.254;10.430;2023-02-11T00:29:48;60.63;;;30.70;;
37895;SDS011;23733;53.254;10.430;2023-02-11T00:32:14;56.23;;;28.67;;
37895;SDS011;23733;53.254;10.430;2023-02-11T00:34:41;58.97;;;28.93;;
37895;SDS011;23733;53.254;10.430;2023-02-11T00:37:07;57.27;;;29.13;;
37895;SDS011;23733;53.254;10.430;2023-02-11T00:39:33;54.30;;;29.77;;
37895;SDS011;23733;53.254;10.430;2023-02-11T00:41:59;59.90;;;31.87;;
37895;SDS011;23733;53.254;10.430;2023-02-11T00:44:26;58.23;;;29.70;;
37895;SDS011;23733;53.254;10.430;2023-02-11T00:46:52;52.13;;;28.87;;
37895;SDS011;23733;53.254;10.430;2023-02-11T00:49:18;63.00;;;30.63;;
37895;SDS011;23733;53.254;10.430;2023-02-11T00:51:45;61.17;;;30.77;;
37895;SDS011;23733;53.254;10.430;2023-02-11T00:54:11;56.13;;;28.87;;
37895;SDS011;23733;53.254;10.430;2023-02-11T00:56:37;57.83;;;30.03;;
37895;SDS011;23733;53.254;10.430;2023-02-11T00:59:04;54.27;;;29.77;;
37895;SDS011;23733;53.254;10.430;2023-02-11T01:01:30;53.73;;;29.33;;
37895;SDS011;23733;53.254;10.430;2023-02-11T01:03:56;59.47;;;29.10;;
37895;SDS011;23733;53.254;10.430;2023-02-11T01:06:22;63.30;;;29.23;;
37895;SDS011;23733;53.254;10.430;2023-02-11T01:08:49;55.00;;;29.00;;
37895;SDS011;23733;53.254;10.430;2023-02-11T01:11:16;56.13;;;28.67;;
37895;SDS011;23733;53.254;10.430;2023-02-11T01:13:43;52.77;;;28.27;;
37895;SDS011;23733;53.254;10.430;2023-02-11T01:16:09;54.33;;;29.27;;
37895;SDS011;23733;53.254;10.430;2023-02-11T01:18:36;54.63;;;28.40;;
37895;SDS011;23733;53.254;10.430;2023-02-11T01:21:03;54.33;;;29.13;;
37895;SDS011;23733;53.254;10.430;2023-02-11T01:23:29;59.00;;;30.60;;
37895;SDS011;23733;53.254;10.430;2023-02-11T01:25:56;58.93;;;31.33;;
37895;SDS011;23733;53.254;10.430;2023-02-11T01:28:23;63.60;;;29.40;;
37895;SDS011;23733;53.254;10.430;2023-02-11T01:30:50;55.30;;;30.67;;
37895;SDS011;23733;53.254;10.430;2023-02-11T01:33:16;58.27;;;31.97;;
37895;SDS011;23733;53.254;10.430;2023-02-11T01:35:43;55.50;;;30.30;;
37895;SDS011;23733;53.254;10.430;2023-02-11T01:38:20;62.77;;;30.50;;
37895;SDS011;23733;53.254;10.430;2023-02-11T01:40:47;55.73;;;29.10;;
37895;SDS011;23733;53.254;10.430;2023-02-11T01:43:14;56.73;;;30.53;;
37895;SDS011;23733;53.254;10.430;2023-02-11T01:48:14;53.53;;;28.90;;
37895;SDS011;23733;53.254;10.430;2023-02-11T01:50:42;64.03;;;32.37;;
37895;SDS011;23733;53.254;10.430;2023-02-11T01:53:10;62.20;;;30.80;;
37895;SDS011;23733;53.254;10.430;2023-02-11T01:55:55;65.90;;;30.67;;
37895;SDS011;23733;53.254;10.430;2023-02-11T01:58:42;57.47;;;29.57;;
37895;SDS011;23733;53.254;10.430;2023-02-11T02:01:10;58.87;;;30.63;;
37895;SDS011;23733;53.254;10.430;2023-02-11T02:03:38;61.70;;;29.17;;
37895;SDS011;23733;53.254;10.430;2023-02-11T02:06:15;54.50;;;27.03;;
37895;SDS011;23733;53.254;10.430;2023-02-11T02:08:46;60.37;;;29.80;;
37895;SDS011;23733;53.254;10.430;2023-02-11T02:11:14;55.50;;;27.70;;
37895;SDS011;23733;53.254;10.430;2023-02-11T02:13:41;57.20;;;28.23;;
37895;SDS011;23733;53.254;10.430;2023-02-11T02:16:10;57.50;;;28.73;;
37895;SDS011;23733;53.254;10.430;2023-02-11T02:24:14;53.00;;;28.03;;
37895;SDS011;23733;53.254;10.430;2023-02-11T02:27:07;51.63;;;27.77;;
37895;SDS011;23733;53.254;10.430;2023-02-11T02:29:56;57.77;;;29.00;;
37895;SDS011;23733;53.254;10.430;2023-02-11T02:37:41;56.03;;;28.80;;
37895;SDS011;23733;53.254;10.430;2023-02-11T02:40:15;63.77;;;31.57;;
37895;SDS011;23733;53.254;10.430;2023-02-11T02:42:42;53.90;;;27.07;;
37895;SDS011;23733;53.254;10.430;2023-02-11T02:45:09;53.13;;;27.07;;
37895;SDS011;23733;53.254;10.430;2023-02-11T02:47:36;61.30;;;29.73;;
37895;SDS011;23733;53.254;10.430;2023-02-11T02:50:03;58.23;;;29.97;;
37895;SDS011;23733;53.254;10.430;2023-02-11T02:52:41;59.87;;;29.23;;
37895;SDS011;23733;53.254;10.430;2023-02-11T02:55:30;61.27;;;31.10;;
37895;SDS011;23733;53.254;10.430;2023-02-11T03:03:25;50.77;;;27.57;;
37895;SDS011;23733;53.254;10.430;2023-02-11T03:05:56;61.43;;;29.30;;
37895;SDS011;23733;53.254;10.430;2023-02-11T03:10:54;58.10;;;30.90;;
37895;SDS011;23733;53.254;10.430;2023-02-11T03:13:23;59.77;;;30.70;;
37895;SDS011;23733;53.254;10.430;2023-02-11T03:15:51;56.43;;;29.53;;
37895;SDS011;23733;53.254;10.430;2023-02-11T03:18:19;61.07;;;30.70;;
37895;SDS011;23733;53.254;10.430;2023-02-11T03:20:46;65.13;;;31.33;;
37895;SDS011;23733;53.254;10.430;2023-02-11T03:23:15;66.93;;;30.27;;
37895;SDS011;23733;53.254;10.430;2023-02-11T03:25:46;61.90;;;30.93;;
37895;SDS011;23733;53.254;10.430;2023-02-11T03:28:19;64.43;;;31.27;;
37895;SDS011;23733;53.254;10.430;2023-02-11T03:30:52;69.27;;;31.50;;
37895;SDS011;23733;53.254;10.430;2023-02-11T03:33:24;62.30;;;29.57;;
37895;SDS011;23733;53.254;10.430;2023-02-11T03:36:06;67.27;;;31.13;;
37895;SDS011;23733;53.254;10.430;2023-02-11T03:38:34;62.73;;;30.33;;
37895;SDS011;23733;53.254;10.430;2023-02-11T03:41:02;62.90;;;29.63;;
37895;SDS011;23733;53.254;10.430;2023-02-11T03:43:34;72.63;;;32.93;;
37895;SDS011;23733;53.254;10.430;2023-02-11T03:46:02;66.17;;;31.60;;
37895;SDS011;23733;53.254;10.430;2023-02-11T03:48:30;63.03;;;30.17;;
37895;SDS011;23733;53.254;10.430;2023-02-11T03:50:57;65.20;;;29.07;;
37895;SDS011;23733;53.254;10.430;2023-02-11T03:53:24;50.90;;;27.57;;
37895;SDS011;23733;53.254;10.430;2023-02-11T03:55:51;58.37;;;28.17;;
37895;SDS011;23733;53.254;10.430;2023-02-11T03:58:19;59.33;;;29.20;;
37895;SDS011;23733;53.254;10.430;2023-02-11T04:00:45;57.63;;;29.20;;
37895;SDS011;23733;53.254;10.430;2023-02-11T04:03:12;56.63;;;28.80;;
37895;SDS011;23733;53.254;10.430;2023-02-11T04:05:39;59.23;;;29.20;;
37895;SDS011;23733;53.254;10.430;2023-02-11T04:08:05;56.43;;;27.77;;
37895;SDS011;23733;53.254;10.430;2023-02-11T04:10:31;58.00;;;28.43;;
37895;SDS011;23733;53.254;10.430;2023-02-11T04:12:58;52.40;;;24.97;;
37895;SDS011;23733;53.254;10.430;2023-02-11T04:15:24;51.37;;;27.03;;
37895;SDS011;23733;53.254;10.430;2023-02-11T04:17:50;55.37;;;27.07;;
37895;SDS011;23733;53.254;10.430;2023-02-11T04:20:17;52.37;;;27.47;;
37895;SDS011;23733;53.254;10.430;2023-02-11T04:22:43;57.60;;;26.93;;
37895;SDS011;23733;53.254;10.430;2023-02-11T04:25:09;52.93;;;27.00;;
37895;SDS011;23733;53.254;10.430;2023-02-11T04:27:36;50.53;;;26.10;;
37895;SDS011;23733;53.254;10.430;2023-02-11T04:30:03;57.07;;;25.43;;
37895;SDS011;23733;53.254;10.430;2023-02-11T04:32:29;69.57;;;28.87;;
37895;SDS011;23733;53.254;10.430;2023-02-11T04:34:55;50.30;;;26.07;;
37895;SDS011;23733;53.254;10.430;2023-02-11T04:37:21;43.60;;;23.73;;
37895;SDS011;23733;53.254;10.430;2023-02-11T04:39:47;46.43;;;25.37;;
37895;SDS011;23733;53.254;10.430;2023-02-11T04:42:13;45.33;;;25.30;;
37895;SDS011;23733;53.254;10.430;2023-02-11T04:44:39;51.50;;;25.27;;
37895;SDS011;23733;53.254;10.430;2023-02-11T04:47:05;50.07;;;25.20;;
37895;SDS011;23733;53.254;10.430;2023-02-11T04:49:31;49.23;;;25.20;;
37895;SDS011;23733;53.254;10.430;2023-02-11T04:51:57;48.60;;;23.90;;
37895;SDS011;23733;53.254;10.430;2023-02-11T04:54:23;49.27;;;23.70;;
37895;SDS011;23733;53.254;10.430;2023-02-11T04:56:49;43.97;;;23.40;;
37895;SDS011;23733;53.254;10.430;2023-02-11T04:59:15;47.83;;;22.60;;
37895;SDS011;23733;53.254;10.430;2023-02-11T05:01:41;46.00;;;24.43;;
37895;SDS011;23733;53.254;10.430;2023-02-11T05:04:07;49.20;;;23.03;;
37895;SDS011;23733;53.254;10.430;2023-02-11T05:06:33;48.37;;;24.70;;
37895;SDS011;23733;53.254;10.430;2023-02-11T05:08:59;46.00;;;22.70;;
37895;SDS011;23733;53.254;10.430;2023-02-11T05:11:25;44.13;;;23.67;;
37895;SDS011;23733;53.254;10.430;2023-02-11T05:13:51;53.97;;;22.90;;
37895;SDS011;23733;53.254;10.430;2023-02-11T05:16:17;47.87;;;23.17;;
37895;SDS011;23733;53.254;10.430;2023-02-11T05:18:45;49.87;;;23.23;;
37895;SDS011;23733;53.254;10.430;2023-02-11T05:21:12;43.60;;;21.87;;
37895;SDS011;23733;53.254;10.430;2023-02-11T05:23:39;49.53;;;23.50;;
37895;SDS011;23733;53.254;10.430;2023-02-11T05:26:06;39.60;;;22.33;;
37895;SDS011;23733;53.254;10.430;2023-02-11T05:28:33;45.00;;;21.67;;
37895;SDS011;23733;53.254;10.430;2023-02-11T05:30:59;39.70;;;20.23;;
37895;SDS011;23733;53.254;10.430;2023-02-11T05:33:26;45.10;;;22.77;;
37895;SDS011;23733;53.254;10.430;2023-02-11T05:35:59;41.50;;;21.80;;
37895;SDS011;23733;53.254;10.430;2023-02-11T05:38:30;45.17;;;21.80;;
37895;SDS011;23733;53.254;10.430;2023-02-11T05:40:56;45.43;;;21.60;;
37895;SDS011;23733;53.254;10.430;2023-02-11T05:43:22;45.83;;;21.60;;
37895;SDS011;23733;53.254;10.430;2023-02-11T05:45:48;45.83;;;21.63;;
37895;SDS011;23733;53.254;10.430;2023-02-11T05:48:14;43.57;;;22.10;;
37895;SDS011;23733;53.254;10.430;2023-02-11T05:50:41;38.20;;;20.50;;
37895;SDS011;23733;53.254;10.430;2023-02-11T05:53:07;41.60;;;21.07;;
37895;SDS011;23733;53.254;10.430;2023-02-11T05:55:33;41.03;;;20.63;;
37895;SDS011;23733;53.254;10.430;2023-02-11T05:57:59;47.17;;;22.77;;
37895;SDS011;23733;53.254;10.430;2023-02-11T06:00:25;46.73;;;21.83;;
37895;SDS011;23733;53.254;10.430;2023-02-11T06:02:51;36.50;;;20.13;;
37895;SDS011;23733;53.254;10.430;2023-02-11T06:05:17;42.73;;;20.73;;
37895;SDS011;23733;53.254;10.430;2023-02-11T06:07:44;39.60;;;20.33;;
37895;SDS011;23733;53.254;10.430;2023-02-11T06:10:10;33.60;;;18.07;;
37895;SDS011;23733;53.254;10.430;2023-02-11T06:12:36;38.67;;;18.90;;
37895;SDS011;23733;53.254;10.430;2023-02-11T06:15:03;41.67;;;20.73;;
37895;SDS011;23733;53.254;10.430;2023-02-11T06:17:30;40.07;;;19.63;;
37895;SDS011;23733;53.254;10.430;2023-02-11T06:19:58;42.93;;;20.63;;
37895;SDS011;23733;53.254;10.430;2023-02-11T06:22:25;34.50;;;17.83;;
37895;SDS011;23733;53.254;10.430;2023-02-11T06:24:51;39.87;;;17.90;;
37895;SDS011;23733;53.254;10.430;2023-02-11T06:27:17;35.77;;;18.53;;
37895;SDS011;23733;53.254;10.430;2023-02-11T06:29:44;34.57;;;18.63;;
37895;SDS011;23733;53.254;10.430;2023-02-11T06:32:11;38.83;;;19.13;;
37895;SDS011;23733;53.254;10.430;2023-02-11T06:34:37;34.37;;;17.87;;
37895;SDS011;23733;53.254;10.430;2023-02-11T06:37:04;37.07;;;19.43;;
37895;SDS011;23733;53.254;10.430;2023-02-11T06:39:30;37.30;;;19.00;;
37895;SDS011;23733;53.254;10.430;2023-02-11T06:41:57;30.37;;;17.30;;
37895;SDS011;23733;53.254;10.430;2023-02-11T06:44:23;33.87;;;17.77;;
37895;SDS011;23733;53.254;10.430;2023-02-11T06:46:49;30.87;;;17.13;;
37895;SDS011;23733;53.254;10.430;2023-02-11T06:49:16;36.40;;;18.73;;
37895;SDS011;23733;53.254;10.430;2023-02-11T06:51:42;39.17;;;17.40;;
37895;SDS011;23733;53.254;10.430;2023-02-11T06:54:09;27.67;;;15.50;;
37895;SDS011;23733;53.254;10.430;2023-02-11T06:56:37;32.43;;;16.43;;
37895;SDS011;23733;53.254;10.430;2023-02-11T06:59:04;31.30;;;16.27;;
37895;SDS011;23733;53.254;10.430;2023-02-11T07:01:30;30.27;;;15.03;;
37895;SDS011;23733;53.254;10.430;2023-02-11T07:03:56;32.67;;;16.53;;
37895;SDS011;23733;53.254;10.430;2023-02-11T07:06:24;30.17;;;15.60;;
37895;SDS011;23733;53.254;10.430;2023-02-11T07:08:52;31.10;;;16.00;;
37895;SDS011;23733;53.254;10.430;2023-02-11T07:11:23;33.90;;;17.43;;
37895;SDS011;23733;53.254;10.430;2023-02-11T07:13:50;30.87;;;15.77;;
37895;SDS011;23733;53.254;10.430;2023-02-11T07:16:16;34.63;;;16.57;;
37895;SDS011;23733;53.254;10.430;2023-02-11T07:18:43;34.43;;;17.07;;
37895;SDS011;23733;53.254;10.430;2023-02-11T07:21:10;32.83;;;17.10;;
37895;SDS011;23733;53.254;10.430;2023-02-11T07:23:37;30.17;;;17.07;;
37895;SDS011;23733;53.254;10.430;2023-02-11T07:26:15;33.27;;;16.20;;
37895;SDS011;23733;53.254;10.430;2023-02-11T07:28:42;29.73;;;16.27;;
37895;SDS011;23733;53.254;10.430;2023-02-11T07:31:09;35.03;;;15.33;;
37895;SDS011;23733;53.254;10.430;2023-02-11T07:33:36;30.07;;;16.00;;
37895;SDS011;23733;53.254;10.430;2023-02-11T07:36:03;33.30;;;15.50;;
37895;SDS011;23733;53.254;10.430;2023-02-11T07:38:30;31.03;;;14.63;;
37895;SDS011;23733;53.254;10.430;2023-02-11T07:40:59;30.47;;;15.90;;
37895;SDS011;23733;53.254;10.430;2023-02-11T07:43:26;27.33;;;13.87;;
37895;SDS011;23733;53.254;10.430;2023-02-11T07:45:53;22.83;;;12.73;;
37895;SDS011;23733;53.254;10.430;2023-02-11T07:48:19;24.77;;;14.87;;
37895;SDS011;23733;53.254;10.430;2023-02-11T07:50:45;28.43;;;13.27;;
37895;SDS011;23733;53.254;10.430;2023-02-11T07:53:11;31.60;;;14.60;;
37895;SDS011;23733;53.254;10.430;2023-02-11T07:55:38;26.27;;;12.47;;
37895;SDS011;23733;53.254;10.430;2023-02-11T07:58:04;26.90;;;14.37;;
37895;SDS011;23733;53.254;10.430;2023-02-11T08:00:30;27.13;;;13.87;;
37895;SDS011;23733;53.254;10.430;2023-02-11T08:02:57;27.07;;;14.63;;
37895;SDS011;23733;53.254;10.430;2023-02-11T08:05:23;26.80;;;13.00;;
37895;SDS011;23733;53.254;10.430;2023-02-11T08:07:50;27.63;;;14.33;;
37895;SDS011;23733;53.254;10.430;2023-02-11T08:10:17;29.20;;;14.50;;
37895;SDS011;23733;53.254;10.430;2023-02-11T08:12:43;28.00;;;14.13;;
37895;SDS011;23733;53.254;10.430;2023-02-11T08:15:09;28.40;;;13.90;;
37895;SDS011;23733;53.254;10.430;2023-02-11T08:17:36;31.57;;;14.70;;
37895;SDS011;23733;53.254;10.430;2023-02-11T08:20:03;25.23;;;13.37;;
37895;SDS011;23733;53.254;10.430;2023-02-11T08:22:33;27.77;;;12.53;;
37895;SDS011;23733;53.254;10.430;2023-02-11T08:24:59;30.13;;;13.77;;
37895;SDS011;23733;53.254;10.430;2023-02-11T08:27:26;29.77;;;14.03;;
37895;SDS011;23733;53.254;10.430;2023-02-11T08:29:52;23.60;;;12.70;;
37895;SDS011;23733;53.254;10.430;2023-02-11T08:32:19;25.83;;;12.30;;
37895;SDS011;23733;53.254;10.430;2023-02-11T08:34:45;21.57;;;12.63;;
37895;SDS011;23733;53.254;10.430;2023-02-11T08:37:15;22.33;;;12.80;;
37895;SDS011;23733;53.254;10.430;2023-02-11T08:39:42;23.33;;;11.30;;
37895;SDS011;23733;53.254;10.430;2023-02-11T08:42:08;21.07;;;11.17;;
37895;SDS011;23733;53.254;10.430;2023-02-11T08:44:35;23.37;;;11.13;;
37895;SDS011;23733;53.254;10.430;2023-02-11T08:47:01;21.17;;;11.17;;
37895;SDS011;23733;53.254;10.430;2023-02-11T08:49:28;19.83;;;10.43;;
37895;SDS011;23733;53.254;10.430;2023-02-11T08:51:55;20.40;;;11.40;;
37895;SDS011;23733;53.254;10.430;2023-02-11T08:54:26;18.93;;;11.17;;
37895;SDS011;23733;53.254;10.430;2023-02-11T08:56:52;22.83;;;10.93;;
37895;SDS011;23733;53.254;10.430;2023-02-11T08:59:19;18.20;;;10.50;;
37895;SDS011;23733;53.254;10.430;2023-02-11T09:01:45;18.97;;;9.83;;
37895;SDS011;23733;53.254;10.430;2023-02-11T09:04:12;16.07;;;9.77;;
37895;SDS011;23733;53.254;10.430;2023-02-11T09:06:38;19.77;;;10.63;;
37895;SDS011;23733;53.254;10.430;2023-02-11T09:09:05;22.97;;;10.43;;
37895;SDS011;23733;53.254;10.430;2023-02-11T09:11:33;18.10;;;10.17;;
37895;SDS011;23733;53.254;10.430;2023-02-11T09:14:00;19.10;;;10.47;;
37895;SDS011;23733;53.254;10.430;2023-02-11T09:16:27;18.97;;;10.40;;
37895;SDS011;23733;53.254;10.430;2023-02-11T09:18:58;20.77;;;9.93;;
37895;SDS011;23733;53.254;10.430;2023-02-11T09:21:25;19.90;;;10.07;;
37895;SDS011;23733;53.254;10.430;2023-02-11T09:23:51;16.87;;;9.90;;
37895;SDS011;23733;53.254;10.430;2023-02-11T09:26:21;16.73;;;10.10;;
37895;SDS011;23733;53.254;10.430;2023-02-11T09:28:47;19.37;;;10.53;;
37895;SDS011;23733;53.254;10.430;2023-02-11T09:31:15;17.40;;;10.63;;
37895;SDS011;23733;53.254;10.430;2023-02-11T09:33:43;20.67;;;10.10;;
37895;SDS011;23733;53.254;10.430;2023-02-11T09:36:16;19.70;;;11.23;;
37895;SDS011;23733;53.254;10.430;2023-02-11T09:38:43;21.17;;;10.83;;
37895;SDS011;23733;53.254;10.430;2023-02-11T09:43:55;18.37;;;10.50;;
37895;SDS011;23733;53.254;10.430;2023-02-11T09:46:22;19.27;;;10.63;;
37895;SDS011;23733;53.254;10.430;2023-02-11T09:48:49;19.47;;;10.03;;
37895;SDS011;23733;53.254;10.430;2023-02-11T09:53:50;17.50;;;9.53;;
37895;SDS011;23733;53.254;10.430;2023-02-11T09:56:18;19.53;;;9.80;;
37895;SDS011;23733;53.254;10.430;2023-02-11T09:58:45;19.43;;;10.80;;
37895;SDS011;23733;53.254;10.430;2023-02-11T10:04:06;20.87;;;11.23;;
37895;SDS011;23733;53.254;10.430;2023-02-11T10:06:44;17.30;;;9.83;;
37895;SDS011;23733;53.254;10.430;2023-02-11T10:17:35;17.63;;;10.13;;
37895;SDS011;23733;53.254;10.430;2023-02-11T10:20:14;18.47;;;9.63;;
37895;SDS011;23733;53.254;10.430;2023-02-11T10:22:48;15.73;;;8.27;;
37895;SDS011;23733;53.254;10.430;2023-02-11T10:25:25;13.13;;;8.53;;
37895;SDS011;23733;53.254;10.430;2023-02-11T10:27:53;18.70;;;9.10;;
37895;SDS011;23733;53.254;10.430;2023-02-11T10:30:26;14.20;;;8.60;;
37895;SDS011;23733;53.254;10.430;2023-02-11T10:35:20;15.03;;;8.57;;
37895;SDS011;23733;53.254;10.430;2023-02-11T10:37:47;13.90;;;8.50;;
37895;SDS011;23733;53.254;10.430;2023-02-11T10:40:18;15.10;;;8.87;;
37895;SDS011;23733;53.254;10.430;2023-02-11T10:42:45;16.80;;;8.63;;
37895;SDS011;23733;53.254;10.430;2023-02-11T10:45:21;14.50;;;8.60;;
37895;SDS011;23733;53.254;10.430;2023-02-11T10:47:48;14.20;;;7.87;;
37895;SDS011;23733;53.254;10.430;2023-02-11T10:50:19;15.77;;;8.27;;
37895;SDS011;23733;53.254;10.430;2023-02-11T10:52:45;12.43;;;7.93;;
37895;SDS011;23733;53.254;10.430;2023-02-11T10:57:42;14.77;;;7.43;;
37895;SDS011;23733;53.254;10.430;2023-02-11T11:00:32;15.00;;;8.03;;
37895;SDS011;23733;53.254;10.430;2023-02-11T11:03:04;12.20;;;7.43;;
37895;SDS011;23733;53.254;10.430;2023-02-11T11:05:33;15.23;;;7.43;;
37895;SDS011;23733;53.254;10.430;2023-02-11T11:08:05;12.10;;;7.30;;
37895;SDS011;23733;53.254;10.430;2023-02-11T11:10:39;13.73;;;7.50;;
37895;SDS011;23733;53.254;10.430;2023-02-11T11:13:24;13.87;;;7.43;;
37895;SDS011;23733;53.254;10.430;2023-02-11T11:18:35;13.63;;;6.63;;
37895;SDS011;23733;53.254;10.430;2023-02-11T11:21:03;11.90;;;6.40;;
37895;SDS011;23733;53.254;10.430;2023-02-11T11:23:31;12.47;;;6.40;;
37895;SDS011;23733;53.254;10.430;2023-02-11T11:26:04;13.23;;;7.20;;
37895;SDS011;23733;53.254;10.430;2023-02-11T11:31:18;12.50;;;6.27;;
37895;SDS011;23733;53.254;10.430;2023-02-11T11:33:45;13.10;;;7.03;;
37895;SDS011;23733;53.254;10.430;2023-02-11T11:36:13;13.40;;;7.30;;
37895;SDS011;23733;53.254;10.430;2023-02-11T11:38:54;14.07;;;7.03;;
37895;SDS011;23733;53.254;10.430;2023-02-11T11:41:23;14.33;;;7.97;;
37895;SDS011;23733;53.254;10.430;2023-02-11T11:43:57;15.67;;;7.00;;
37895;SDS011;23733;53.254;10.430;2023-02-11T11:48:55;14.37;;;7.43;;
37895;SDS011;23733;53.254;10.430;2023-02-11T11:51:22;17.43;;;8.03;;
37895;SDS011;23733;53.254;10.430;2023-02-11T11:53:52;17.67;;;7.80;;
37895;SDS011;23733;53.254;10.430;2023-02-11T11:56:23;14.27;;;7.57;;
37895;SDS011;23733;53.254;10.430;2023-02-11T11:58:50;16.23;;;7.83;;
37895;SDS011;23733;53.254;10.430;2023-02-11T12:01:22;14.20;;;7.93;;
37895;SDS011;23733;53.254;10.430;2023-02-11T12:06:35;15.87;;;7.53;;
37895;SDS011;23733;53.254;10.430;2023-02-11T12:09:08;12.43;;;7.53;;
37895;SDS011;23733;53.254;10.430;2023-02-11T12:14:21;13.83;;;7.57;;
37895;SDS011;23733;53.254;10.430;2023-02-11T12:17:06;16.90;;;8.40;;
37895;SDS011;23733;53.254;10.430;2023-02-11T12:24:44;18.17;;;8.20;;
37895;SDS011;23733;53.254;10.430;2023-02-11T12:27:16;14.23;;;7.93;;
37895;SDS011;23733;53.254;10.430;2023-02-11T12:32:58;25.33;;;8.43;;
37895;SDS011;23733;53.254;10.430;2023-02-11T12:35:41;17.57;;;8.70;;
37895;SDS011;23733;53.254;10.430;2023-02-11T12:38:19;15.87;;;7.73;;
37895;SDS011;23733;53.254;10.430;2023-02-11T12:51:44;20.20;;;10.00;;
37895;SDS011;23733;53.254;10.430;2023-02-11T12:56:43;18.03;;;8.27;;
37895;SDS011;23733;53.254;10.430;2023-02-11T13:01:46;15.47;;;8.30;;
37895;SDS011;23733;53.254;10.430;2023-02-11T13:04:23;18.93;;;8.40;;
37895;SDS011;23733;53.254;10.430;2023-02-11T13:06:52;15.67;;;7.67;;
37895;SDS011;23733;53.254;10.430;2023-02-11T13:09:25;17.73;;;8.13;;
37895;SDS011;23733;53.254;10.430;2023-02-11T13:11:53;17.40;;;7.60;;
37895;SDS011;23733;53.254;10.430;2023-02-11T13:14:23;15.23;;;8.10;;
37895;SDS011;23733;53.254;10.430;2023-02-11T13:16:51;17.50;;;7.37;;
37895;SDS011;23733;53.254;10.430;2023-02-11T13:19:40;17.23;;;7.97;;
37895;SDS011;23733;53.254;10.430;2023-02-11T13:22:11;15.63;;;7.40;;
37895;SDS011;23733;53.254;10.430;2023-02-11T13:24:43;14.37;;;7.20;;
37895;SDS011;23733;53.254;10.430;2023-02-11T13:27:29;13.97;;;7.13;;
37895;SDS011;23733;53.254;10.430;2023-02-11T13:35:40;13.03;;;6.20;;
37895;SDS011;23733;53.254;10.430;2023-02-11T13:38:23;10.93;;;5.47;;
37895;SDS011;23733;53.254;10.430;2023-02-11T13:41:01;12.43;;;6.40;;
37895;SDS011;23733;53.254;10.430;2023-02-11T13:43:30;11.97;;;6.00;;
37895;SDS011;23733;53.254;10.430;2023-02-11T13:46:03;9.80;;;5.70;;
37895;SDS011;23733;53.254;10.430;2023-02-11T13:48:31;10.53;;;5.63;;
37895;SDS011;23733;53.254;10.430;2023-02-11T13:51:02;10.93;;;5.20;;
37895;SDS011;23733;53.254;10.430;2023-02-11T13:53:41;9.20;;;4.90;;
37895;SDS011;23733;53.254;10.430;2023-02-11T13:56:29;10.07;;;4.97;;
37895;SDS011;23733;53.254;10.430;2023-02-11T13:58:56;6.53;;;4.10;;
37895;SDS011;23733;53.254;10.430;2023-02-11T14:01:39;7.60;;;3.90;;
37895;SDS011;23733;53.254;10.430;2023-02-11T14:04:29;9.47;;;4.77;;
37895;SDS011;23733;53.254;10.430;2023-02-11T14:07:24;16.70;;;4.30;;
37895;SDS011;23733;53.254;10.430;2023-02-11T14:13:05;7.67;;;4.07;;
37895;SDS011;23733;53.254;10.430;2023-02-11T14:15:38;7.07;;;4.50;;
37895;SDS011;23733;53.254;10.430;2023-02-11T14:20:49;8.50;;;4.17;;
37895;SDS011;23733;53.254;10.430;2023-02-11T14:23:22;8.63;;;4.17;;
37895;SDS011;23733;53.254;10.430;2023-02-11T14:25:57;8.10;;;3.97;;
37895;SDS011;23733;53.254;10.430;2023-02-11T14:28:26;8.67;;;4.10;;
37895;SDS011;23733;53.254;10.430;2023-02-11T14:33:46;7.93;;;4.50;;
37895;SDS011;23733;53.254;10.430;2023-02-11T14:38:58;8.60;;;4.10;;
37895;SDS011;23733;53.254;10.430;2023-02-11T14:41:28;9.27;;;3.77;;
37895;SDS011;23733;53.254;10.430;2023-02-11T14:44:03;8.87;;;4.23;;
37895;SDS011;23733;53.254;10.430;2023-02-11T14:46:30;7.17;;;3.77;;
37895;SDS011;23733;53.254;10.430;2023-02-11T14:48:59;7.47;;;4.37;;
37895;SDS011;23733;53.254;10.430;2023-02-11T14:51:27;9.80;;;4.70;;
37895;SDS011;23733;53.254;10.430;2023-02-11T14:57:05;7.63;;;4.17;;
37895;SDS011;23733;53.254;10.430;2023-02-11T14:59:32;6.83;;;4.10;;
37895;SDS011;23733;53.254;10.430;2023-02-11T15:01:58;8.30;;;4.23;;
37895;SDS011;23733;53.254;10.430;2023-02-11T15:06:52;7.43;;;4.00;;
37895;SDS011;23733;53.254;10.430;2023-02-11T15:09:20;10.43;;;4.50;;
37895;SDS011;23733;53.254;10.430;2023-02-11T15:11:50;7.90;;;4.27;;
37895;SDS011;23733;53.254;10.430;2023-02-11T15:14:26;9.10;;;4.73;;
37895;SDS011;23733;53.254;10.430;2023-02-11T15:16:54;12.30;;;5.73;;
37895;SDS011;23733;53.254;10.430;2023-02-11T15:19:34;10.17;;;5.30;;
37895;SDS011;23733;53.254;10.430;2023-02-11T15:22:04;8.03;;;5.10;;
37895;SDS011;23733;53.254;10.430;2023-02-11T15:24:33;8.13;;;4.53;;
37895;SDS011;23733;53.254;10.430;2023-02-11T15:27:01;9.73;;;5.27;;
37895;SDS011;23733;53.254;10.430;2023-02-11T15:29:38;10.03;;;5.47;;
37895;SDS011;23733;53.254;10.430;2023-02-11T15:32:14;9.43;;;5.27;;
37895;SDS011;23733;53.254;10.430;2023-02-11T15:34:44;9.37;;;5.23;;
37895;SDS011;23733;53.254;10.430;2023-02-11T15:37:12;10.67;;;5.43;;
37895;SDS011;23733;53.254;10.430;2023-02-11T15:39:39;7.00;;;4.70;;
37895;SDS011;23733;53.254;10.430;2023-02-11T15:42:23;8.00;;;4.37;;
37895;SDS011;23733;53.254;10.430;2023-02-11T15:45:06;7.97;;;4.77;;
37895;SDS011;23733;53.254;10.430;2023-02-11T15:47:33;9.40;;;5.13;;
37895;SDS011;23733;53.254;10.430;2023-02-11T15:50:00;9.17;;;4.90;;
37895;SDS011;23733;53.254;10.430;2023-02-11T15:52:27;8.03;;;5.00;;
37895;SDS011;23733;53.254;10.430;2023-02-11T15:54:54;11.30;;;5.33;;
37895;SDS011;23733;53.254;10.430;2023-02-11T15:57:21;13.67;;;6.17;;
37895;SDS011;23733;53.254;10.430;2023-02-11T15:59:48;9.47;;;5.10;;
37895;SDS011;23733;53.254;10.430;2023-02-11T16:02:33;10.43;;;5.10;;
37895;SDS011;23733;53.254;10.430;2023-02-11T16:05:04;11.70;;;5.53;;
37895;SDS011;23733;53.254;10.430;2023-02-11T16:07:37;6.63;;;4.63;;